Time;durP1;ratioP1;P1;durP2;ratioP2;P2;SDS_P1;SDS_P2;PMS_P1;PMS_P2;Temp;Humidity;BMP_temperature;BMP_pressure;BME280_temperature;BME280_humidity;BME280_pressure;Samples;Min_cycle;Max_cycle;Signal;HPM_P1;HPM_P2
2021/05/10 00:00:53;;;;;;;0.80;0.80;;;;;19.20;99040.00;;;;2079863;28;20220;-66
2021/05/10 00:01:53;;;;;;;1.10;1.00;;;;;19.30;99042.00;;;;2078552;28;20717;-66
2021/05/10 00:02:53;;;;;;;1.10;1.00;;;;;19.30;99039.00;;;;2078030;28;20281;-66
2021/05/10 00:03:54;;;;;;;1.40;0.80;;;;;19.30;99043.00;;;;2079853;28;20217;-66
2021/05/10 00:04:54;;;;;;;1.00;0.90;;;;;19.30;99034.00;;;;2079810;28;20216;-66
2021/05/10 00:05:54;;;;;;;1.13;0.90;;;;;19.30;99042.00;;;;2079782;28;20263;-66
2021/05/10 00:06:55;;;;;;;1.00;0.90;;;;;19.20;99036.00;;;;2079606;28;20284;-66
2021/05/10 00:07:55;;;;;;;1.00;0.90;;;;;19.30;99030.00;;;;2079736;28;20224;-66
2021/05/10 00:08:57;;;;;;;1.30;0.90;;;;;19.30;99040.00;;;;2075006;28;20590;-66
2021/05/10 00:09:57;;;;;;;1.10;1.00;;;;;19.20;99049.00;;;;2079495;28;20214;-66
2021/05/10 00:10:57;;;;;;;0.90;0.80;;;;;19.20;99043.00;;;;2079436;28;20756;-66
2021/05/10 00:11:58;;;;;;;0.80;0.80;;;;;19.30;99032.00;;;;2079834;28;20719;-66
2021/05/10 00:12:58;;;;;;;1.10;0.83;;;;;19.30;99043.00;;;;2079720;28;20221;-66
2021/05/10 00:13:59;;;;;;;0.80;0.80;;;;;19.20;99042.00;;;;2079663;28;20225;-66
2021/05/10 00:14:59;;;;;;;1.17;1.07;;;;;19.30;99047.00;;;;2079810;28;20228;-66
2021/05/10 00:15:59;;;;;;;0.73;0.73;;;;;19.30;99038.00;;;;2079135;28;20229;-66
2021/05/10 00:16:59;;;;;;;1.00;0.90;;;;;19.30;99043.00;;;;2078799;28;20230;-66
2021/05/10 00:18:03;;;;;;;0.90;0.90;;;;;19.30;99038.00;;;;2079613;28;20224;-66
2021/05/10 00:19:03;;;;;;;0.80;0.80;;;;;19.30;99038.00;;;;2078759;28;20951;-66
2021/05/10 00:20:04;;;;;;;1.13;1.03;;;;;19.30;99039.00;;;;2079030;28;20241;-66
2021/05/10 00:21:04;;;;;;;0.90;0.80;;;;;19.30;99038.00;;;;2079558;28;20213;-66
2021/05/10 00:22:05;;;;;;;0.90;0.70;;;;;19.30;99044.00;;;;2079796;28;20301;-66
2021/05/10 00:23:05;;;;;;;0.97;0.70;;;;;19.30;99035.00;;;;2079683;28;20585;-66
2021/05/10 00:24:06;;;;;;;0.90;0.77;;;;;19.30;99038.00;;;;2076889;28;20202;-66
2021/05/10 00:25:07;;;;;;;0.70;0.70;;;;;19.20;99039.00;;;;2079460;28;20290;-66
2021/05/10 00:26:07;;;;;;;0.90;0.70;;;;;19.30;99040.00;;;;2078911;28;20221;-66
2021/05/10 00:27:07;;;;;;;0.80;0.80;;;;;19.30;99041.00;;;;2078759;28;20234;-66
2021/05/10 00:28:08;;;;;;;0.73;0.70;;;;;19.20;99035.00;;;;2079611;28;20325;-66
2021/05/10 00:29:08;;;;;;;0.83;0.80;;;;;19.30;99043.00;;;;2079688;28;20267;-66
2021/05/10 00:30:09;;;;;;;1.00;0.80;;;;;19.30;99044.00;;;;2079685;28;20221;-66
2021/05/10 00:31:09;;;;;;;0.88;0.88;;;;;19.30;99039.00;;;;2079510;28;20221;-66
2021/05/10 00:32:10;;;;;;;0.70;0.70;;;;;19.30;99038.00;;;;2079421;28;20252;-66
2021/05/10 00:33:10;;;;;;;1.03;0.93;;;;;19.30;99039.00;;;;2079622;28;20221;-66
2021/05/10 00:34:10;;;;;;;1.20;1.10;;;;;19.30;99035.00;;;;2080850;28;20209;-66
2021/05/10 00:35:12;;;;;;;0.80;0.70;;;;;19.30;99031.00;;;;2080703;28;20222;-66
2021/05/10 00:36:12;;;;;;;0.60;0.60;;;;;19.30;99039.00;;;;2080489;28;20225;-66
2021/05/10 00:37:13;;;;;;;0.77;0.73;;;;;19.30;99032.00;;;;2081229;28;20567;-66
2021/05/10 00:38:13;;;;;;;0.70;0.70;;;;;19.30;99051.00;;;;2081387;28;20584;-65
2021/05/10 00:39:13;;;;;;;1.00;0.90;;;;;19.30;99041.00;;;;2081359;28;20221;-66
2021/05/10 00:40:14;;;;;;;0.77;0.77;;;;;19.30;99043.00;;;;2080733;28;20696;-66
2021/05/10 00:41:15;;;;;;;0.80;0.70;;;;;19.30;99053.00;;;;2079867;28;20213;-66
2021/05/10 00:42:15;;;;;;;1.00;0.80;;;;;19.30;99050.00;;;;2080708;28;20316;-66
2021/05/10 00:43:15;;;;;;;0.80;0.80;;;;;19.30;99035.00;;;;2081316;28;20241;-66
2021/05/10 00:44:16;;;;;;;0.90;0.90;;;;;19.30;99044.00;;;;2081153;28;20209;-66
2021/05/10 00:45:16;;;;;;;0.80;0.70;;;;;19.30;99047.00;;;;2081332;28;20212;-66
2021/05/10 00:46:17;;;;;;;1.03;0.93;;;;;19.30;99052.00;;;;2081110;28;20206;-66
2021/05/10 00:47:17;;;;;;;1.07;0.97;;;;;19.30;99053.00;;;;2080424;28;20213;-66
2021/05/10 00:48:18;;;;;;;1.07;0.97;;;;;19.30;99036.00;;;;2080141;28;20244;-66
2021/05/10 00:49:18;;;;;;;0.70;0.60;;;;;19.30;99042.00;;;;2081375;28;20217;-66
2021/05/10 00:50:19;;;;;;;0.80;0.80;;;;;19.30;99042.00;;;;2081217;28;20453;-66
2021/05/10 00:51:19;;;;;;;0.80;0.80;;;;;19.30;99051.00;;;;2081152;28;20245;-66
2021/05/10 00:52:20;;;;;;;1.07;0.97;;;;;19.30;99050.00;;;;2080955;28;20209;-66
2021/05/10 00:53:20;;;;;;;0.80;0.80;;;;;19.30;99054.00;;;;2081207;28;20209;-66
2021/05/10 00:54:20;;;;;;;0.83;0.80;;;;;19.30;99051.00;;;;2076613;28;20680;-66
2021/05/10 00:55:21;;;;;;;0.70;0.70;;;;;19.30;99048.00;;;;2079019;28;20581;-66
2021/05/10 00:56:21;;;;;;;2.70;0.73;;;;;19.30;99059.00;;;;2079664;28;20607;-66
2021/05/10 00:57:22;;;;;;;1.10;1.00;;;;;19.30;99047.00;;;;2071625;28;20214;-66
2021/05/10 00:58:22;;;;;;;0.77;0.77;;;;;19.30;99050.00;;;;2071639;28;20223;-66
2021/05/10 00:59:22;;;;;;;0.83;0.80;;;;;19.30;99038.00;;;;2072006;28;20207;-66
2021/05/10 01:00:23;;;;;;;0.83;0.83;;;;;19.30;99039.00;;;;2071754;28;20705;-66
2021/05/10 01:01:23;;;;;;;0.80;0.80;;;;;19.30;99027.00;;;;2079970;28;20771;-66
2021/05/10 01:02:23;;;;;;;0.70;0.70;;;;;19.30;99033.00;;;;2071497;28;20246;-66
2021/05/10 01:03:24;;;;;;;1.10;1.00;;;;;19.30;99040.00;;;;2055485;28;20227;-66
2021/05/10 01:04:25;;;;;;;1.13;1.00;;;;;19.30;99034.00;;;;2071651;28;20214;-66
2021/05/10 01:05:25;;;;;;;0.70;0.60;;;;;19.30;99038.00;;;;2080462;28;20332;-66
2021/05/10 01:06:25;;;;;;;0.83;0.77;;;;;19.30;99032.00;;;;2080649;28;20221;-66
2021/05/10 01:07:26;;;;;;;0.73;0.70;;;;;19.30;99029.00;;;;2080756;28;20213;-66
2021/05/10 01:08:26;;;;;;;0.80;0.70;;;;;19.30;99031.00;;;;2081039;28;20206;-66
2021/05/10 01:09:26;;;;;;;0.77;0.73;;;;;19.30;99031.00;;;;2081098;28;20333;-66
2021/05/10 01:10:27;;;;;;;0.80;0.77;;;;;19.30;99039.00;;;;2076968;28;20217;-66
2021/05/10 01:11:28;;;;;;;1.00;0.80;;;;;19.30;99028.00;;;;2081150;28;20232;-66
2021/05/10 01:12:28;;;;;;;0.77;0.63;;;;;19.30;99021.00;;;;2081164;28;20451;-66
2021/05/10 01:13:30;;;;;;;0.80;0.80;;;;;19.30;99036.00;;;;2081185;28;20230;-66
2021/05/10 01:14:30;;;;;;;0.82;0.82;;;;;19.30;99032.00;;;;2080763;28;20688;-66
2021/05/10 01:15:31;;;;;;;1.00;0.87;;;;;19.30;99014.00;;;;2080378;28;20209;-66
2021/05/10 01:16:31;;;;;;;1.73;0.83;;;;;19.30;99020.00;;;;2080270;28;20217;-67
2021/05/10 01:17:32;;;;;;;0.80;0.70;;;;;19.30;99024.00;;;;2080502;28;20210;-66
2021/05/10 01:18:33;;;;;;;0.80;0.70;;;;;19.30;99015.00;;;;2079952;28;20226;-66
2021/05/10 01:19:35;;;;;;;0.80;0.80;;;;;19.30;99010.00;;;;2070777;28;20218;-66
2021/05/10 01:20:35;;;;;;;0.80;0.73;;;;;19.30;99007.00;;;;2079880;28;20241;-66
2021/05/10 01:21:35;;;;;;;0.90;0.80;;;;;19.30;99010.00;;;;2071798;28;20245;-67
2021/05/10 01:22:43;;;;;;;1.10;1.00;;;;;19.30;99011.00;;;;2055338;28;20230;-66
2021/05/10 01:23:44;;;;;;;0.90;0.75;;;;;19.30;99002.00;;;;2072443;28;20218;-66
2021/05/10 01:24:45;;;;;;;0.90;0.70;;;;;19.30;98997.00;;;;2077703;28;20279;-66
2021/05/10 01:25:45;;;;;;;1.03;0.90;;;;;19.30;99004.00;;;;2071121;28;20272;-66
2021/05/10 01:26:45;;;;;;;0.70;0.70;;;;;19.30;99004.00;;;;2079425;28;20316;-66
2021/05/10 01:27:46;;;;;;;0.70;0.70;;;;;19.30;98997.00;;;;2080536;28;20293;-65
2021/05/10 01:28:46;;;;;;;0.70;0.70;;;;;19.30;99010.00;;;;2079864;28;20304;-66
2021/05/10 01:29:47;;;;;;;0.90;0.80;;;;;19.30;99002.00;;;;2079734;28;20245;-66
2021/05/10 01:30:50;;;;;;;1.10;1.00;;;;;19.30;99013.00;;;;2079286;28;20210;-66
2021/05/10 01:31:51;;;;;;;1.00;0.80;;;;;19.30;98999.00;;;;2080249;28;21030;-66
2021/05/10 01:32:52;;;;;;;0.73;0.73;;;;;19.30;98992.00;;;;2080036;28;20248;-66
2021/05/10 01:33:52;;;;;;;0.70;0.70;;;;;19.30;99001.00;;;;2079588;28;20720;-66
2021/05/10 01:34:53;;;;;;;0.90;0.80;;;;;19.30;98996.00;;;;2079690;28;20202;-66
2021/05/10 01:35:53;;;;;;;0.70;0.70;;;;;19.30;98994.00;;;;2079132;28;20206;-66
2021/05/10 01:36:54;;;;;;;1.07;0.80;;;;;19.30;98994.00;;;;2078888;28;20210;-66
2021/05/10 01:37:54;;;;;;;0.73;0.70;;;;;19.30;98993.00;;;;2080014;28;20703;-66
2021/05/10 01:38:54;;;;;;;0.80;0.80;;;;;19.30;98988.00;;;;2077390;28;20210;-66
2021/05/10 01:39:55;;;;;;;0.80;0.80;;;;;19.30;98991.00;;;;2079194;28;20260;-66
2021/05/10 01:40:55;;;;;;;1.30;0.90;;;;;19.30;98975.00;;;;2080781;28;20214;-66
2021/05/10 01:41:55;;;;;;;0.83;0.77;;;;;19.30;98983.00;;;;2080718;28;20221;-66
2021/05/10 01:42:56;;;;;;;0.77;0.63;;;;;19.30;98983.00;;;;2078425;28;20272;-66
2021/05/10 01:43:56;;;;;;;1.10;0.90;;;;;19.30;98988.00;;;;2078056;28;20210;-66
2021/05/10 01:44:57;;;;;;;0.60;0.60;;;;;19.30;98988.00;;;;2079890;28;20210;-66
2021/05/10 01:45:57;;;;;;;0.80;0.80;;;;;19.30;98990.00;;;;2080130;28;20264;-66
2021/05/10 01:46:58;;;;;;;0.80;0.70;;;;;19.30;98989.00;;;;2080003;28;20249;-66
2021/05/10 01:48:05;;;;;;;0.90;0.80;;;;;19.30;99003.00;;;;2080126;28;20221;-66
2021/05/10 01:49:06;;;;;;;0.88;0.88;;;;;19.30;99001.00;;;;2076050;28;20363;-66
2021/05/10 01:50:19;;;;;;;0.73;0.70;;;;;19.30;99000.00;;;;2080341;28;20218;-66
2021/05/10 01:51:24;;;;;;;1.10;1.00;;;;;19.30;98999.00;;;;2069452;28;20217;-66
2021/05/10 01:52:24;;;;;;;1.00;0.90;;;;;19.30;99002.00;;;;2079525;28;20221;-66
2021/05/10 01:53:25;;;;;;;0.97;0.87;;;;;19.30;98995.00;;;;2080294;28;20305;-66
2021/05/10 01:54:25;;;;;;;0.93;0.83;;;;;19.30;99003.00;;;;2080164;28;20301;-66
2021/05/10 01:55:25;;;;;;;0.90;0.70;;;;;19.30;99002.00;;;;2079962;28;20580;-65
2021/05/10 01:56:26;;;;;;;1.00;1.00;;;;;19.30;99003.00;;;;2080100;28;20713;-66
2021/05/10 01:57:26;;;;;;;1.00;0.90;;;;;19.30;99005.00;;;;2080168;28;20206;-66
2021/05/10 01:58:26;;;;;;;1.00;0.90;;;;;19.30;99008.00;;;;2080120;28;20217;-66
2021/05/10 01:59:27;;;;;;;0.90;0.87;;;;;19.30;98997.00;;;;2079931;28;20234;-66
2021/05/10 02:00:31;;;;;;;0.80;0.70;;;;;19.30;99006.00;;;;2080161;28;20214;-66
2021/05/10 02:01:32;;;;;;;0.98;0.90;;;;;19.30;99008.00;;;;2079696;28;20232;-66
2021/05/10 02:02:32;;;;;;;0.80;0.67;;;;;19.30;98986.00;;;;2079624;28;20224;-66
2021/05/10 02:03:32;;;;;;;0.97;0.90;;;;;19.30;98994.00;;;;2080308;28;20562;-66
2021/05/10 02:05:10;;;;;;;0.80;0.80;;;;;19.30;98986.00;;;;2079252;28;20708;-66
2021/05/10 02:06:10;;;;;;;0.70;0.60;;;;;19.30;98981.00;;;;2077530;28;20222;-66
2021/05/10 02:07:11;;;;;;;0.77;0.77;;;;;19.30;98981.00;;;;2080633;28;20218;-66
2021/05/10 02:08:12;;;;;;;1.00;0.90;;;;;19.30;98989.00;;;;2079742;28;20585;-66
2021/05/10 02:09:12;;;;;;;0.70;0.70;;;;;19.30;98982.00;;;;2080416;28;20580;-66
2021/05/10 02:10:20;;;;;;;0.90;0.90;;;;;19.30;98993.00;;;;2077146;28;20234;-66
2021/05/10 02:11:21;;;;;;;0.88;0.70;;;;;19.30;98971.00;;;;2076524;28;20247;-65
2021/05/10 02:12:21;;;;;;;1.47;0.80;;;;;19.30;98982.00;;;;2080106;28;20724;-66
2021/05/10 02:13:22;;;;;;;0.90;0.70;;;;;19.30;98979.00;;;;2080074;28;20688;-66
2021/05/10 02:14:23;;;;;;;0.70;0.70;;;;;19.30;98983.00;;;;2078957;28;20221;-66
2021/05/10 02:15:27;;;;;;;0.80;0.80;;;;;19.30;98987.00;;;;2079320;28;20210;-66
2021/05/10 02:16:28;;;;;;;0.80;0.80;;;;;19.30;98977.00;;;;2080110;28;20209;-66
2021/05/10 02:17:28;;;;;;;1.10;1.00;;;;;19.30;98984.00;;;;2079625;28;20242;-66
2021/05/10 02:18:34;;;;;;;1.30;0.97;;;;;19.30;98978.00;;;;2079854;28;20252;-66
2021/05/10 02:19:34;;;;;;;1.00;0.90;;;;;19.30;98973.00;;;;2076616;28;20221;-66
2021/05/10 02:20:35;;;;;;;0.70;0.70;;;;;19.30;98966.00;;;;2079936;28;20588;-66
2021/05/10 02:21:35;;;;;;;0.70;0.70;;;;;19.30;98957.00;;;;2080201;28;20296;-66
2021/05/10 02:22:35;;;;;;;0.90;0.70;;;;;19.30;98967.00;;;;2080193;28;20218;-66
2021/05/10 02:23:36;;;;;;;0.80;0.80;;;;;19.30;98971.00;;;;2079168;28;20206;-66
2021/05/10 02:24:37;;;;;;;0.80;0.80;;;;;19.30;98972.00;;;;2079389;28;20691;-66
2021/05/10 02:25:42;;;;;;;1.63;0.87;;;;;19.30;98973.00;;;;2079578;28;20221;-66
2021/05/10 02:26:42;;;;;;;1.00;0.90;;;;;19.30;98916.00;;;;2079892;28;20225;-67
2021/05/10 02:27:42;;;;;;;0.90;0.83;;;;;19.30;98973.00;;;;2080036;28;20644;-67
2021/05/10 02:28:43;;;;;;;1.17;0.70;;;;;19.30;98957.00;;;;2079866;28;25214;-67
2021/05/10 02:29:43;;;;;;;0.90;0.90;;;;;19.30;98963.00;;;;2079417;28;20286;-66
2021/05/10 02:30:43;;;;;;;0.80;0.70;;;;;19.30;98968.00;;;;2078156;28;20268;-66
2021/05/10 02:31:46;;;;;;;0.80;0.80;;;;;19.30;98968.00;;;;2079232;28;20237;-66
2021/05/10 02:32:46;;;;;;;0.80;0.80;;;;;19.30;98961.00;;;;2079457;28;20224;-65
2021/05/10 02:33:46;;;;;;;0.97;0.87;;;;;19.30;98968.00;;;;2079013;28;20581;-66
2021/05/10 02:34:47;;;;;;;0.93;0.83;;;;;19.30;98968.00;;;;2079605;28;20214;-66
2021/05/10 02:35:48;;;;;;;1.23;0.63;;;;;19.30;98965.00;;;;2078748;28;20217;-67
2021/05/10 02:36:48;;;;;;;1.08;0.60;;;;;19.30;98968.00;;;;2069763;28;20221;-67
2021/05/10 02:37:49;;;;;;;0.80;0.80;;;;;19.30;98973.00;;;;2079537;28;20333;-66
2021/05/10 02:38:49;;;;;;;0.80;0.70;;;;;19.30;98964.00;;;;2080285;28;20228;-66
2021/05/10 02:39:50;;;;;;;0.80;0.73;;;;;19.30;98961.00;;;;2080163;28;20238;-66
2021/05/10 02:40:50;;;;;;;1.20;1.10;;;;;19.30;98962.00;;;;2079524;28;20755;-66
2021/05/10 02:41:51;;;;;;;0.70;0.70;;;;;19.30;98966.00;;;;2080335;28;20226;-66
2021/05/10 02:42:51;;;;;;;1.10;0.90;;;;;19.30;98960.00;;;;2080360;28;20316;-66
2021/05/10 02:43:51;;;;;;;0.80;0.80;;;;;19.30;98964.00;;;;2080485;28;20325;-66
2021/05/10 02:44:52;;;;;;;0.70;0.60;;;;;19.30;98960.00;;;;2080327;28;20217;-66
2021/05/10 02:45:52;;;;;;;0.70;0.70;;;;;19.30;98971.00;;;;2080331;28;20210;-66
2021/05/10 02:46:53;;;;;;;0.90;0.70;;;;;19.30;98972.00;;;;2080076;28;20228;-66
2021/05/10 02:47:53;;;;;;;1.00;0.70;;;;;19.30;98975.00;;;;2079598;28;20221;-66
2021/05/10 02:48:53;;;;;;;0.90;0.70;;;;;19.30;98971.00;;;;2079469;28;20206;-66
2021/05/10 02:49:54;;;;;;;0.80;0.80;;;;;19.30;98972.00;;;;2079666;28;20214;-66
2021/05/10 02:50:54;;;;;;;0.70;0.70;;;;;19.30;98968.00;;;;2079883;28;20267;-66
2021/05/10 02:51:54;;;;;;;1.00;0.70;;;;;19.30;98972.00;;;;2079723;28;20701;-66
2021/05/10 02:52:55;;;;;;;0.80;0.80;;;;;19.30;98964.00;;;;2079498;28;20604;-66
2021/05/10 02:53:55;;;;;;;0.90;0.80;;;;;19.30;98962.00;;;;2079960;28;20639;-66
2021/05/10 02:54:55;;;;;;;0.80;0.70;;;;;19.30;98965.00;;;;2079670;28;20316;-66
2021/05/10 02:55:56;;;;;;;0.80;0.80;;;;;19.30;98960.00;;;;2079699;28;20226;-67
2021/05/10 02:56:56;;;;;;;0.80;0.77;;;;;19.30;98959.00;;;;2078685;28;20259;-67
2021/05/10 02:57:56;;;;;;;0.70;0.70;;;;;19.30;98953.00;;;;2080055;28;20214;-67
2021/05/10 02:58:57;;;;;;;0.90;0.90;;;;;19.10;98952.00;;;;2080098;28;20240;-67
2021/05/10 02:59:57;;;;;;;1.23;0.87;;;;;19.30;98947.00;;;;2080101;28;20206;-66
2021/05/10 03:00:58;;;;;;;0.90;0.80;;;;;19.30;98933.00;;;;2077729;28;20881;-67
2021/05/10 03:01:58;;;;;;;0.80;0.80;;;;;19.30;98937.00;;;;2080206;28;20295;-67
2021/05/10 03:02:58;;;;;;;1.10;0.90;;;;;19.30;98934.00;;;;2079949;28;20684;-67
2021/05/10 03:03:59;;;;;;;0.70;0.70;;;;;19.30;98945.00;;;;2079998;28;20238;-66
2021/05/10 03:04:59;;;;;;;0.80;0.70;;;;;19.30;98937.00;;;;2080164;28;20222;-66
2021/05/10 03:05:59;;;;;;;0.70;0.53;;;;;19.30;98943.00;;;;2077441;28;20218;-66
2021/05/10 03:07:00;;;;;;;0.60;0.60;;;;;19.30;98938.00;;;;2079892;28;20228;-66
2021/05/10 03:08:02;;;;;;;0.70;0.60;;;;;19.30;98938.00;;;;2079493;28;20222;-66
2021/05/10 03:09:02;;;;;;;0.80;0.80;;;;;19.30;98942.00;;;;2079147;28;20226;-66
2021/05/10 03:10:03;;;;;;;0.80;0.80;;;;;19.30;98942.00;;;;2079859;28;20296;-66
2021/05/10 03:11:04;;;;;;;0.80;0.77;;;;;19.30;98940.00;;;;2079658;28;20301;-66
2021/05/10 03:12:04;;;;;;;1.13;0.70;;;;;19.30;98949.00;;;;2079598;28;20229;-66
2021/05/10 03:13:05;;;;;;;0.70;0.70;;;;;19.30;98948.00;;;;2079757;28;20768;-66
2021/05/10 03:14:05;;;;;;;0.83;0.80;;;;;19.30;98949.00;;;;2079950;28;20584;-66
2021/05/10 03:15:07;;;;;;;0.80;0.80;;;;;19.30;98952.00;;;;2077276;28;20558;-66
2021/05/10 03:16:08;;;;;;;0.80;0.70;;;;;19.30;98947.00;;;;2079206;28;20267;-66
2021/05/10 03:17:09;;;;;;;0.77;0.75;;;;;19.30;98951.00;;;;2077391;28;20207;-66
2021/05/10 03:18:09;;;;;;;1.00;0.90;;;;;19.30;98945.00;;;;2080010;28;20696;-66
2021/05/10 03:19:10;;;;;;;1.10;0.90;;;;;19.30;98949.00;;;;2080083;28;20221;-66
2021/05/10 03:20:12;;;;;;;0.80;0.70;;;;;19.30;98942.00;;;;2079881;28;21093;-66
2021/05/10 03:21:12;;;;;;;1.00;0.90;;;;;19.30;98946.00;;;;2079631;28;20457;-66
2021/05/10 03:22:13;;;;;;;0.80;0.70;;;;;19.30;98942.00;;;;2079441;28;20219;-66
2021/05/10 03:23:13;;;;;;;1.13;0.87;;;;;19.30;98941.00;;;;2079817;28;20212;-66
2021/05/10 03:24:14;;;;;;;0.90;0.83;;;;;19.30;98944.00;;;;2080078;28;20252;-66
2021/05/10 03:25:14;;;;;;;0.90;0.80;;;;;19.10;98936.00;;;;2080029;28;20218;-66
2021/05/10 03:26:14;;;;;;;1.10;0.90;;;;;19.30;98932.00;;;;2079532;28;20214;-66
2021/05/10 03:27:15;;;;;;;0.97;0.80;;;;;19.30;98938.00;;;;2079720;28;20676;-66
2021/05/10 03:28:15;;;;;;;1.03;0.93;;;;;19.30;98938.00;;;;2079904;28;20203;-66
2021/05/10 03:29:15;;;;;;;0.70;0.70;;;;;19.30;98936.00;;;;2079971;28;20248;-66
2021/05/10 03:30:17;;;;;;;1.27;0.70;;;;;19.30;98934.00;;;;2074185;28;20213;-66
2021/05/10 03:31:17;;;;;;;0.75;0.70;;;;;19.30;98939.00;;;;2080050;28;20224;-66
2021/05/10 03:32:18;;;;;;;0.80;0.70;;;;;19.30;98948.00;;;;2079918;28;20239;-66
2021/05/10 03:33:18;;;;;;;0.87;0.80;;;;;19.30;98947.00;;;;2080111;28;20209;-66
2021/05/10 03:34:18;;;;;;;0.90;0.80;;;;;19.30;98945.00;;;;2080000;28;20700;-66
2021/05/10 03:35:19;;;;;;;0.90;0.70;;;;;19.30;98949.00;;;;2076556;28;20221;-66
2021/05/10 03:36:20;;;;;;;0.67;0.60;;;;;19.30;98940.00;;;;2079816;28;20699;-66
2021/05/10 03:37:20;;;;;;;0.90;0.80;;;;;19.30;98942.00;;;;2079603;28;20810;-66
2021/05/10 03:38:20;;;;;;;0.70;0.63;;;;;19.30;98936.00;;;;2079933;28;20202;-66
2021/05/10 03:39:21;;;;;;;0.80;0.80;;;;;19.30;98938.00;;;;2079936;28;20217;-66
2021/05/10 03:40:21;;;;;;;0.87;0.87;;;;;19.30;98932.00;;;;2080069;28;20209;-66
2021/05/10 03:41:24;;;;;;;0.70;0.70;;;;;19.30;98930.00;;;;2080027;28;20272;-66
2021/05/10 03:42:25;;;;;;;1.00;0.75;;;;;19.30;98928.00;;;;2079868;28;20302;-66
2021/05/10 03:43:25;;;;;;;1.40;0.63;;;;;19.30;98932.00;;;;2079843;28;20704;-66
2021/05/10 03:44:25;;;;;;;0.77;0.70;;;;;19.30;98929.00;;;;2079609;28;20230;-66
2021/05/10 03:45:26;;;;;;;0.80;0.80;;;;;19.30;98936.00;;;;2079661;28;20619;-66
2021/05/10 03:46:26;;;;;;;0.80;0.80;;;;;19.30;98930.00;;;;2079362;28;20222;-66
2021/05/10 03:47:39;;;;;;;1.10;0.80;;;;;19.30;98936.00;;;;2077903;28;20228;-66
2021/05/10 03:48:40;;;;;;;1.00;0.70;;;;;19.30;98938.00;;;;2078879;28;20723;-66
2021/05/10 03:49:40;;;;;;;0.70;0.60;;;;;19.30;98936.00;;;;2079171;28;20214;-66
2021/05/10 03:50:41;;;;;;;0.80;0.80;;;;;19.30;98940.00;;;;2079333;28;20675;-66
2021/05/10 03:51:42;;;;;;;0.80;0.77;;;;;19.30;98941.00;;;;2079588;28;20682;-66
2021/05/10 03:52:42;;;;;;;1.00;0.85;;;;;19.30;98944.00;;;;2079266;28;20755;-66
2021/05/10 03:53:43;;;;;;;0.90;0.70;;;;;19.30;98948.00;;;;2078684;28;20251;-66
2021/05/10 03:54:43;;;;;;;0.70;0.70;;;;;19.30;98947.00;;;;2070919;28;20233;-66
2021/05/10 03:55:43;;;;;;;0.90;0.63;;;;;19.30;98948.00;;;;2078693;28;20245;-66
2021/05/10 03:56:44;;;;;;;0.80;0.80;;;;;19.30;98957.00;;;;2079850;28;20283;-66
2021/05/10 03:57:44;;;;;;;0.83;0.77;;;;;19.30;98955.00;;;;2079540;28;20210;-66
2021/05/10 03:58:44;;;;;;;1.10;0.97;;;;;19.30;98954.00;;;;2079923;28;20217;-66
2021/05/10 03:59:45;;;;;;;0.80;0.70;;;;;19.30;98956.00;;;;2079445;28;20222;-66
2021/05/10 04:00:45;;;;;;;1.33;0.80;;;;;19.30;98962.00;;;;2079552;28;20210;-66
2021/05/10 04:01:45;;;;;;;0.80;0.70;;;;;19.30;98964.00;;;;2079608;28;20240;-67
2021/05/10 04:02:46;;;;;;;0.90;0.80;;;;;19.30;98968.00;;;;2079661;28;20232;-66
2021/05/10 04:03:53;;;;;;;0.80;0.70;;;;;19.30;98969.00;;;;2079133;28;20210;-66
2021/05/10 04:07:33;;;;;;;0.90;0.90;;;;;19.30;98975.00;;;;2079582;28;20272;-66
2021/05/10 04:11:07;;;;;;;1.13;0.80;;;;;19.30;98991.00;;;;2078947;28;20222;-66
2021/05/10 04:13:50;;;;;;;0.70;0.70;;;;;19.30;98973.00;;;;2079780;28;20829;-66
2021/05/10 04:14:50;;;;;;;0.82;0.80;;;;;19.30;98986.00;;;;2077563;28;20233;-66
2021/05/10 04:15:51;;;;;;;0.80;0.73;;;;;19.30;98974.00;;;;2079621;28;20581;-66
2021/05/10 04:16:51;;;;;;;0.90;0.80;;;;;19.30;98977.00;;;;2078081;28;20598;-66
2021/05/10 04:17:51;;;;;;;0.80;0.70;;;;;19.30;98979.00;;;;2078579;28;20222;-66
2021/05/10 04:18:52;;;;;;;0.90;0.80;;;;;19.30;98980.00;;;;2079625;28;20291;-67
2021/05/10 04:19:52;;;;;;;0.73;0.73;;;;;19.30;98983.00;;;;2079676;28;20633;-66
2021/05/10 04:20:52;;;;;;;0.80;0.80;;;;;19.30;98982.00;;;;2079667;28;20618;-66
2021/05/10 04:21:53;;;;;;;0.70;0.63;;;;;19.30;98975.00;;;;2079280;28;20214;-66
2021/05/10 04:22:53;;;;;;;0.80;0.70;;;;;19.30;98985.00;;;;2079661;28;20202;-66
2021/05/10 04:23:53;;;;;;;0.87;0.83;;;;;19.30;98979.00;;;;2079879;28;20213;-66
2021/05/10 04:24:54;;;;;;;0.80;0.80;;;;;19.30;98986.00;;;;2079894;28;20217;-66
2021/05/10 04:25:54;;;;;;;0.80;0.80;;;;;19.30;98991.00;;;;2079642;28;20220;-66
2021/05/10 04:26:55;;;;;;;0.70;0.70;;;;;19.30;98988.00;;;;2079406;28;20214;-66
2021/05/10 04:27:55;;;;;;;0.90;0.80;;;;;19.30;98995.00;;;;2079653;28;20218;-66
2021/05/10 04:28:55;;;;;;;0.80;0.80;;;;;19.30;98995.00;;;;2079692;28;20214;-66
2021/05/10 04:29:56;;;;;;;0.70;0.70;;;;;19.30;98992.00;;;;2079703;28;20217;-66
2021/05/10 04:30:56;;;;;;;0.70;0.60;;;;;19.30;98991.00;;;;2079831;28;20237;-66
2021/05/10 04:31:56;;;;;;;0.70;0.70;;;;;19.30;98991.00;;;;2079551;28;20213;-66
2021/05/10 04:33:00;;;;;;;0.80;0.77;;;;;19.30;98995.00;;;;2079605;28;20553;-66
2021/05/10 04:34:00;;;;;;;0.80;0.80;;;;;19.30;98986.00;;;;2079641;28;20237;-66
2021/05/10 04:35:00;;;;;;;0.80;0.80;;;;;19.30;99002.00;;;;2079599;28;20272;-66
2021/05/10 04:36:01;;;;;;;0.80;0.70;;;;;19.30;99001.00;;;;2079638;28;20213;-66
2021/05/10 04:37:01;;;;;;;1.03;0.67;;;;;19.30;99000.00;;;;2079332;28;20252;-66
2021/05/10 04:38:06;;;;;;;0.60;0.60;;;;;19.40;99009.00;;;;2079446;28;20218;-66
2021/05/10 04:39:06;;;;;;;0.82;0.80;;;;;19.30;99005.00;;;;2079590;28;20222;-66
2021/05/10 04:40:07;;;;;;;0.73;0.73;;;;;19.30;99015.00;;;;2079654;28;20260;-66
2021/05/10 04:41:07;;;;;;;0.80;0.77;;;;;19.30;99006.00;;;;2079630;28;20669;-66
2021/05/10 04:42:08;;;;;;;0.90;0.90;;;;;19.30;99010.00;;;;2078201;28;20464;-66
2021/05/10 04:43:08;;;;;;;0.67;0.60;;;;;19.30;99017.00;;;;2074646;28;20210;-66
2021/05/10 04:44:09;;;;;;;0.80;0.73;;;;;19.30;99021.00;;;;2074504;28;20214;-66
2021/05/10 04:45:10;;;;;;;0.87;0.80;;;;;19.30;99027.00;;;;2079233;28;20209;-63
2021/05/10 04:46:10;;;;;;;0.82;0.70;;;;;19.30;99016.00;;;;2078250;28;20210;-63
2021/05/10 04:47:11;;;;;;;0.80;0.80;;;;;19.30;99022.00;;;;2077588;28;20214;-63
2021/05/10 04:48:11;;;;;;;0.90;0.63;;;;;19.30;99021.00;;;;2078737;28;20710;-63
2021/05/10 04:49:11;;;;;;;0.73;0.60;;;;;19.30;99029.00;;;;2078441;28;20582;-63
2021/05/10 04:50:12;;;;;;;0.70;0.70;;;;;19.30;99026.00;;;;2078295;28;20214;-63
2021/05/10 04:51:12;;;;;;;0.90;0.90;;;;;19.30;99025.00;;;;2077971;28;20225;-63
2021/05/10 04:52:13;;;;;;;1.20;0.90;;;;;19.30;99000.00;;;;2070453;28;20641;-63
2021/05/10 04:53:13;;;;;;;0.70;0.70;;;;;19.40;99002.00;;;;2078268;28;20585;-63
2021/05/10 04:54:13;;;;;;;0.70;0.70;;;;;19.40;99012.00;;;;2078673;28;20225;-63
2021/05/10 04:55:14;;;;;;;0.80;0.70;;;;;19.40;99011.00;;;;2079296;28;20634;-63
2021/05/10 04:56:14;;;;;;;1.00;0.90;;;;;19.30;99025.00;;;;2079487;28;20585;-63
2021/05/10 04:57:14;;;;;;;1.00;0.90;;;;;19.30;99021.00;;;;2079520;28;20214;-64
2021/05/10 04:58:15;;;;;;;0.80;0.80;;;;;19.30;99024.00;;;;2079603;28;20214;-63
2021/05/10 04:59:15;;;;;;;1.00;0.80;;;;;19.30;99038.00;;;;2079559;28;20209;-62
2021/05/10 05:00:16;;;;;;;1.00;1.00;;;;;19.30;99028.00;;;;2079505;28;20214;-63
2021/05/10 05:01:16;;;;;;;0.70;0.67;;;;;19.30;99030.00;;;;2079246;28;20214;-63
2021/05/10 05:02:16;;;;;;;0.80;0.70;;;;;19.40;99049.00;;;;2078898;28;20232;-63
2021/05/10 05:03:17;;;;;;;0.70;0.70;;;;;19.40;99042.00;;;;2079588;28;20252;-63
2021/05/10 05:04:17;;;;;;;0.90;0.70;;;;;19.40;99029.00;;;;2079543;28;20206;-63
2021/05/10 05:05:17;;;;;;;0.70;0.67;;;;;19.40;99047.00;;;;2079602;28;20210;-63
2021/05/10 05:06:18;;;;;;;1.10;0.90;;;;;19.40;99062.00;;;;2079623;28;20249;-63
2021/05/10 05:07:18;;;;;;;1.00;0.90;;;;;19.40;99038.00;;;;2078621;28;20697;-63
2021/05/10 05:08:18;;;;;;;0.70;0.67;;;;;19.30;99051.00;;;;2078807;28;20228;-63
2021/05/10 05:09:19;;;;;;;0.70;0.60;;;;;19.30;99051.00;;;;2078838;28;20206;-63
2021/05/10 05:10:20;;;;;;;0.80;0.70;;;;;19.40;99043.00;;;;2077733;28;20214;-63
2021/05/10 05:11:21;;;;;;;0.60;0.60;;;;;19.30;99052.00;;;;2078660;28;20210;-63
2021/05/10 05:12:21;;;;;;;0.70;0.70;;;;;19.40;99057.00;;;;2078849;28;20214;-63